Houwa Maru — JL6394 — position and weather

sailwx.info

Track history (hours):
 
Tides and Currents Weather Stations Pressure Air Temp Water Temp Dewpoint Dewpoint Depression Visibility Wind Speed Wind Dir Waves Ship Positions

Houwa Maru

Last reported at 2014-Jul-15 12:33 UTC. Time now 2014-Jul-22 13:27 UTC.
Position N 35°55' E 140°56'.

Length 76 m.

Type: Ship. MMSI: 431500378.

Date/timePositionNaut miles runAvg speedWind from/ knotsBaromVisibWave heightAir tempDewpointWater temp
2014-Jul-15 12:33N 35°55' E 140°56'82 9.0
2014-Jul-15 03:28N 34°59' E 139°43'1010.7
2014-Jul-15 02:33N 35°09' E 139°45'1211.0
2014-Jul-15 01:27N 35°21' E 139°42'6 6.6
2014-Jul-15 00:33N 35°23' E 139°49'3 0.4
2014-Jul-14 17:32N 35°21' E 139°51'0 0.0
2014-Jul-14 14:26N 35°21' E 139°51'0 0.0
2014-Jul-14 10:32N 35°21' E 139°51'0 0.1
2014-Jul-14 09:24N 35°21' E 139°51'910.3
2014-Jul-14 08:33N 35°27' E 139°43'1 0.4
2014-Jul-14 05:23N 35°28' E 139°42'2 1.3
2014-Jul-14 04:10N 35°27' E 139°43'0 0.0
2014-Jul-14 03:31N 35°27' E 139°43'0 0.0
2014-Jul-14 01:22N 35°27' E 139°43'0 0.0
2014-Jul-14 00:32N 35°27' E 139°43'0 0.0
2014-Jul-13 23:28N 35°27' E 139°43'3 3.5
2014-Jul-13 22:32N 35°29' E 139°39'0 0.2
2014-Jul-13 21:32N 35°29' E 139°39'0 0.0
2014-Jul-13 20:23N 35°29' E 139°39'0 0.0
2014-Jul-13 17:26N 35°29' E 139°39'0 0.0
2014-Jul-13 16:26N 35°29' E 139°39'0 0.0
2014-Jul-13 15:26N 35°29' E 139°39'0 0.0
2014-Jul-13 13:14N 35°29' E 139°39'0 0.0
2014-Jul-13 11:32N 35°29' E 139°39'0 0.0
2014-Jul-13 10:32N 35°29' E 139°39'0 0.0
2014-Jul-13 09:32N 35°29' E 139°39'0 0.0
2014-Jul-13 08:23N 35°29' E 139°39'0 0.0
2014-Jul-13 07:29N 35°29' E 139°39'0 0.0
2014-Jul-13 06:32N 35°29' E 139°39'0 0.0
2014-Jul-13 05:32N 35°29' E 139°39'0 0.0
2014-Jul-13 03:26N 35°29' E 139°39'0 0.0
2014-Jul-13 02:08N 35°29' E 139°39'0 0.0
2014-Jul-13 01:26N 35°29' E 139°39'0 0.0
2014-Jul-12 23:14N 35°29' E 139°39'3 4.5
2014-Jul-12 22:33N 35°27' E 139°42'1 0.7
2014-Jul-12 21:31N 35°26' E 139°43'0 0.0
2014-Jul-12 20:31N 35°26' E 139°43'0 0.1
2014-Jul-12 19:25N 35°27' E 139°43'0 0.0
2014-Jul-12 18:31N 35°27' E 139°43'0 0.0
2014-Jul-12 17:25N 35°27' E 139°43'0 0.0
2014-Jul-12 16:31N 35°27' E 139°43'0 0.0
2014-Jul-12 15:31N 35°27' E 139°43'0 0.0
2014-Jul-12 14:31N 35°27' E 139°43'0 0.0
2014-Jul-12 13:25N 35°27' E 139°43'0 0.1
2014-Jul-12 12:31N 35°27' E 139°43'0 0.1
2014-Jul-12 11:31N 35°27' E 139°43'4 3.9
2014-Jul-12 10:33N 35°23' E 139°43'10 9.9
2014-Jul-12 09:33N 35°13' E 139°47'1111.0
2014-Jul-12 08:33N 35°03' E 139°41'  
2014-Jul-07 09:20N 34°37' E 134°58'1011.9
2014-Jul-07 08:30N 34°35' E 135°10'1110.4
2014-Jul-07 07:25N 34°33' E 135°23'1 0.0
2014-Jul-06 04:05N 34°32' E 135°23'611.2
2014-Jul-06 03:32N 34°30' E 135°17'  
Track history (hours):
 
Tides and Currents Weather Stations Pressure Air Temp Water Temp Dewpoint Dewpoint Depression Visibility Wind Speed Wind Dir Waves Ship Positions

Houwa Maru

Last reported at 2014-Jul-15 12:33 UTC. Time now 2014-Jul-22 13:27 UTC.
Position N 35°55' E 140°56'.

Length 76 m.

Type: Ship. MMSI: 431500378.

Date/timePositionNaut miles runAvg speedWind from/ knotsBaromVisibWave heightAir tempDewpointWater temp
2014-Jul-15 12:33N 35°55' E 140°56'82 9.0
2014-Jul-15 03:28N 34°59' E 139°43'1010.7
2014-Jul-15 02:33N 35°09' E 139°45'1211.0
2014-Jul-15 01:27N 35°21' E 139°42'6 6.6
2014-Jul-15 00:33N 35°23' E 139°49'3 0.4
2014-Jul-14 17:32N 35°21' E 139°51'0 0.0
2014-Jul-14 14:26N 35°21' E 139°51'0 0.0
2014-Jul-14 10:32N 35°21' E 139°51'0 0.1
2014-Jul-14 09:24N 35°21' E 139°51'910.3
2014-Jul-14 08:33N 35°27' E 139°43'1 0.4
2014-Jul-14 05:23N 35°28' E 139°42'2 1.3
2014-Jul-14 04:10N 35°27' E 139°43'0 0.0
2014-Jul-14 03:31N 35°27' E 139°43'0 0.0
2014-Jul-14 01:22N 35°27' E 139°43'0 0.0
2014-Jul-14 00:32N 35°27' E 139°43'0 0.0
2014-Jul-13 23:28N 35°27' E 139°43'3 3.5
2014-Jul-13 22:32N 35°29' E 139°39'0 0.2
2014-Jul-13 21:32N 35°29' E 139°39'0 0.0
2014-Jul-13 20:23N 35°29' E 139°39'0 0.0
2014-Jul-13 17:26N 35°29' E 139°39'0 0.0
2014-Jul-13 16:26N 35°29' E 139°39'0 0.0
2014-Jul-13 15:26N 35°29' E 139°39'0 0.0
2014-Jul-13 13:14N 35°29' E 139°39'0 0.0
2014-Jul-13 11:32N 35°29' E 139°39'0 0.0
2014-Jul-13 10:32N 35°29' E 139°39'0 0.0
2014-Jul-13 09:32N 35°29' E 139°39'0 0.0
2014-Jul-13 08:23N 35°29' E 139°39'0 0.0
2014-Jul-13 07:29N 35°29' E 139°39'0 0.0
2014-Jul-13 06:32N 35°29' E 139°39'0 0.0
2014-Jul-13 05:32N 35°29' E 139°39'0 0.0
2014-Jul-13 03:26N 35°29' E 139°39'0 0.0
2014-Jul-13 02:08N 35°29' E 139°39'0 0.0
2014-Jul-13 01:26N 35°29' E 139°39'0 0.0
2014-Jul-12 23:14N 35°29' E 139°39'3 4.5
2014-Jul-12 22:33N 35°27' E 139°42'1 0.7
2014-Jul-12 21:31N 35°26' E 139°43'0 0.0
2014-Jul-12 20:31N 35°26' E 139°43'0 0.1
2014-Jul-12 19:25N 35°27' E 139°43'0 0.0
2014-Jul-12 18:31N 35°27' E 139°43'0 0.0
2014-Jul-12 17:25N 35°27' E 139°43'0 0.0
2014-Jul-12 16:31N 35°27' E 139°43'0 0.0
2014-Jul-12 15:31N 35°27' E 139°43'0 0.0
2014-Jul-12 14:31N 35°27' E 139°43'0 0.0
2014-Jul-12 13:25N 35°27' E 139°43'0 0.1
2014-Jul-12 12:31N 35°27' E 139°43'0 0.1
2014-Jul-12 11:31N 35°27' E 139°43'4 3.9
2014-Jul-12 10:33N 35°23' E 139°43'10 9.9
2014-Jul-12 09:33N 35°13' E 139°47'1111.0
2014-Jul-12 08:33N 35°03' E 139°41'  
2014-Jul-07 09:20N 34°37' E 134°58'1011.9
2014-Jul-07 08:30N 34°35' E 135°10'1110.4
2014-Jul-07 07:25N 34°33' E 135°23'1 0.0
2014-Jul-06 04:05N 34°32' E 135°23'611.2
2014-Jul-06 03:32N 34°30' E 135°17'  

Dump ship's entire track history